createdAt,value
2023-09-23T03:17:52.131Z,14.02
2023-09-23T03:23:21.729Z,13.92
2023-09-23T03:28:25.079Z,13.89
2023-09-23T03:33:30.969Z,13.89
2023-09-23T03:38:34.616Z,13.87
2023-09-23T03:43:39.071Z,13.84
2023-09-23T03:48:43.347Z,13.82
2023-09-23T03:53:46.134Z,13.81
2023-09-23T03:58:49.371Z,13.77
2023-09-23T04:03:57.832Z,13.73
2023-09-23T04:09:07.152Z,13.71
2023-09-23T04:14:12.781Z,13.68
2023-09-23T04:19:15.423Z,13.67
2023-09-23T04:24:21.663Z,13.65
2023-09-23T04:29:27.154Z,13.64
2023-09-23T04:34:36.923Z,13.66
2023-09-23T04:39:39.885Z,13.66
2023-09-23T04:44:42.755Z,13.65
2023-09-23T04:49:49.499Z,13.64
2023-09-23T04:54:54.507Z,13.61
2023-09-23T04:59:58.816Z,13.62
2023-09-23T05:05:05.205Z,13.62
2023-09-23T05:10:08.568Z,13.63
2023-09-23T05:15:11.433Z,13.64
2023-09-23T05:20:26.944Z,13.71
2023-09-23T05:25:29.928Z,13.71
2023-09-23T05:30:33.134Z,13.73
2023-09-23T05:35:39.445Z,13.71
2023-09-23T05:40:42.291Z,13.70
2023-09-23T05:45:51.241Z,13.66
2023-09-23T05:51:04.481Z,13.70
2023-09-23T05:56:09.275Z,13.75
2023-09-23T06:01:17.389Z,13.82
2023-09-23T06:06:20.080Z,13.88
2023-09-23T06:11:25.855Z,13.97
2023-09-23T06:16:29.830Z,14.02
2023-09-23T06:21:35.150Z,14.14
2023-09-23T06:26:41.706Z,14.24
2023-09-23T06:31:50.241Z,14.35
2023-09-23T06:36:52.996Z,14.60
2023-09-23T06:41:59.393Z,14.89
2023-09-23T06:47:09.828Z,15.17
2023-09-23T06:52:15.414Z,15.48
2023-09-23T06:57:23.350Z,15.73
2023-09-23T07:02:27.717Z,16.02
2023-09-23T07:07:30.525Z,16.28
2023-09-23T07:12:36.085Z,16.67
2023-09-23T07:17:41.867Z,17.14
2023-09-23T07:22:44.760Z,17.27
2023-09-23T07:27:47.467Z,17.54
2023-09-23T07:32:53.141Z,17.42
2023-09-23T07:38:00.763Z,16.99
2023-09-23T07:43:04.138Z,16.90
2023-09-23T07:48:10.862Z,16.82
2023-09-23T07:53:16.464Z,16.93
2023-09-23T07:58:19.488Z,17.90
2023-09-23T08:03:28.203Z,18.49
2023-09-23T08:08:36.167Z,18.71
2023-09-23T08:13:41.866Z,20.11
2023-09-23T08:18:47.771Z,18.67
2023-09-23T08:23:50.386Z,17.70
2023-09-23T08:28:53.341Z,17.10
2023-09-23T08:33:56.121Z,17.86
2023-09-23T08:39:01.177Z,19.06
2023-09-23T08:44:08.489Z,19.33
2023-09-23T08:49:14.414Z,19.50
2023-09-23T08:54:18.446Z,18.30
2023-09-23T08:59:21.370Z,17.68
2023-09-23T09:04:25.486Z,17.59
2023-09-23T09:09:28.221Z,17.63
2023-09-23T09:14:33.634Z,17.54
2023-09-23T09:19:40.798Z,17.43
2023-09-23T09:24:44.386Z,18.89
2023-09-23T09:29:50.219Z,18.63
2023-09-23T09:34:55.809Z,18.04
2023-09-23T09:40:04.439Z,18.37
2023-09-23T09:45:11.613Z,19.17
2023-09-23T09:50:15.727Z,19.83
2023-09-23T09:55:23.002Z,19.88
2023-09-23T10:00:28.712Z,19.31
2023-09-23T10:05:51.047Z,18.68
2023-09-23T10:11:04.143Z,18.29
2023-09-23T10:16:13.589Z,18.16
2023-09-23T10:21:24.553Z,18.34
2023-09-23T10:26:32.129Z,18.25
2023-09-23T10:31:35.712Z,18.33
2023-09-23T10:36:38.484Z,18.07
2023-09-23T10:41:41.642Z,18.13
2023-09-23T10:46:44.382Z,19.41
2023-09-23T10:51:47.147Z,20.63
2023-09-23T10:56:51.210Z,21.50
2023-09-23T11:01:57.230Z,22.10
2023-09-23T11:07:00.352Z,21.26
2023-09-23T11:12:16.395Z,20.30
2023-09-23T11:17:30.435Z,19.57
2023-09-23T11:22:33.370Z,19.33
2023-09-23T11:27:36.122Z,20.29
2023-09-23T11:32:40.071Z,20.72
2023-09-23T11:37:42.822Z,20.27
2023-09-23T11:42:45.528Z,19.89
2023-09-23T11:47:51.072Z,19.54
2023-09-23T11:52:59.504Z,19.05
2023-09-23T11:58:05.251Z,18.81
2023-09-23T12:03:10.872Z,18.63
2023-09-23T12:08:13.587Z,18.47
2023-09-23T12:13:16.282Z,19.53
2023-09-23T12:18:19.889Z,20.41
2023-09-23T12:23:25.255Z,20.35
2023-09-23T12:28:33.469Z,19.66
2023-09-23T12:33:36.336Z,19.25
2023-09-23T12:38:40.986Z,18.91
2023-09-23T12:43:46.346Z,18.67
2023-09-23T12:48:54.589Z,18.60
2023-09-23T12:53:57.743Z,18.87
2023-09-23T12:59:01.041Z,20.18
2023-09-23T13:04:06.917Z,20.96
2023-09-23T13:09:10.793Z,20.71
2023-09-23T13:14:14.101Z,20.14
2023-09-23T13:19:17.009Z,20.46
2023-09-23T13:24:19.721Z,21.09
2023-09-23T13:29:22.385Z,20.60
2023-09-23T13:34:26.089Z,19.87
2023-09-23T13:39:36.386Z,19.48
2023-09-23T13:44:41.840Z,19.25
2023-09-23T13:49:44.981Z,18.99
2023-09-23T13:54:47.661Z,18.76
2023-09-23T13:59:50.350Z,18.59
2023-09-23T14:04:55.934Z,18.51
2023-09-23T14:10:03.768Z,18.60
2023-09-23T14:15:13.797Z,18.81
2023-09-23T14:20:16.721Z,18.92
2023-09-23T14:25:20.096Z,18.84
2023-09-23T14:30:22.794Z,18.88
2023-09-23T14:35:29.150Z,18.78
2023-09-23T14:40:32.550Z,18.85
2023-09-23T14:45:35.361Z,19.02
2023-09-23T14:50:44.985Z,19.14
2023-09-23T14:55:47.634Z,19.11
2023-09-23T15:00:56.614Z,19.13
2023-09-23T15:05:59.390Z,19.13
2023-09-23T15:11:02.117Z,19.03
2023-09-23T15:16:07.076Z,18.94
2023-09-23T15:21:09.955Z,18.87
2023-09-23T15:26:12.788Z,18.77
2023-09-23T15:31:15.523Z,18.63
2023-09-23T15:36:20.968Z,18.57
2023-09-23T15:41:24.449Z,18.52
2023-09-23T15:46:27.078Z,18.46
2023-09-23T15:51:29.800Z,18.32
2023-09-23T15:56:35.614Z,18.09
2023-09-23T16:01:39.450Z,17.99
2023-09-23T16:06:42.131Z,17.98
2023-09-23T16:11:44.980Z,17.81
2023-09-23T16:16:48.760Z,17.64
2023-09-23T16:21:52.970Z,17.42
2023-09-23T16:26:55.906Z,17.24
2023-09-23T16:31:58.734Z,17.14
2023-09-23T16:37:01.331Z,16.99
2023-09-23T16:42:04.029Z,16.78
2023-09-23T16:47:06.899Z,16.57
2023-09-23T16:52:09.546Z,16.39
2023-09-23T16:57:12.242Z,16.20
2023-09-23T17:02:23.911Z,15.97
2023-09-23T17:07:30.451Z,15.75
2023-09-23T17:12:35.919Z,15.51
2023-09-23T17:17:38.738Z,15.27
2023-09-23T17:22:41.885Z,15.05
2023-09-23T17:27:47.617Z,14.85
2023-09-23T17:32:50.438Z,14.66
2023-09-23T17:37:54.570Z,14.54
2023-09-23T17:43:00.067Z,14.39
2023-09-23T17:48:06.032Z,14.16
2023-09-23T17:53:14.524Z,14.09
2023-09-23T17:58:17.178Z,14.03
2023-09-23T18:03:20.883Z,13.83
2023-09-23T18:08:23.562Z,13.85
2023-09-23T18:13:30.348Z,13.89
2023-09-23T18:18:33.328Z,14.00
2023-09-23T18:23:36.152Z,14.05
2023-09-23T18:28:38.954Z,13.99
2023-09-23T18:33:42.139Z,13.87
2023-09-23T18:38:46.830Z,13.77
2023-09-23T18:43:50.099Z,13.72
2023-09-23T18:48:52.945Z,13.70
2023-09-23T18:53:55.850Z,13.74
2023-09-23T18:58:58.666Z,13.64
2023-09-23T19:04:04.722Z,13.59
2023-09-23T19:09:08.144Z,13.60
2023-09-23T19:14:21.003Z,13.57
2023-09-23T19:19:24.298Z,13.58
2023-09-23T19:24:27.337Z,13.68
2023-09-23T19:29:29.966Z,13.79
2023-09-23T19:34:35.656Z,13.91
2023-09-23T19:39:39.074Z,13.96
2023-09-23T19:44:41.863Z,14.05
2023-09-23T19:49:44.576Z,14.06
2023-09-23T19:54:47.530Z,14.07
2023-09-23T19:59:50.341Z,14.11
2023-09-23T20:04:53.003Z,14.17
2023-09-23T20:09:55.689Z,14.19
2023-09-23T20:14:58.368Z,14.25
2023-09-23T20:20:01.137Z,14.24
2023-09-23T20:25:06.839Z,14.20
2023-09-23T20:30:10.061Z,14.13
2023-09-23T20:35:13.190Z,14.04
2023-09-23T20:40:19.146Z,13.98
2023-09-23T20:45:22.137Z,13.93
2023-09-23T20:50:28.845Z,13.83
2023-09-23T20:55:31.828Z,13.73
2023-09-23T21:00:37.771Z,13.64
2023-09-23T21:05:40.418Z,13.56
2023-09-23T21:10:43.133Z,13.38
2023-09-23T21:15:45.774Z,13.32
2023-09-23T21:20:48.493Z,13.24
2023-09-23T21:25:53.375Z,13.24
2023-09-23T21:30:56.466Z,13.15
2023-09-23T21:35:59.173Z,13.05
2023-09-23T21:41:02.097Z,12.98
2023-09-23T21:46:08.897Z,12.90
2023-09-23T21:51:11.594Z,12.81
2023-09-23T21:56:14.828Z,12.73
2023-09-23T22:01:18.256Z,12.61
2023-09-23T22:06:20.873Z,12.51
2023-09-23T22:11:24.254Z,12.45
2023-09-23T22:16:29.712Z,12.43
2023-09-23T22:21:33.156Z,12.42
2023-09-23T22:26:37.910Z,12.44
2023-09-23T22:31:43.411Z,12.40
2023-09-23T22:36:46.402Z,12.34
2023-09-23T22:41:51.006Z,12.31
2023-09-23T22:46:55.201Z,12.25
2023-09-23T22:51:59.419Z,12.24
2023-09-23T22:57:02.148Z,12.17
2023-09-23T23:02:04.883Z,12.16
2023-09-23T23:07:07.647Z,12.16
2023-09-23T23:12:11.352Z,12.13
2023-09-23T23:17:15.661Z,12.12
2023-09-23T23:22:18.283Z,12.06
2023-09-23T23:27:21.177Z,12.04
2023-09-23T23:32:23.888Z,11.94
2023-09-23T23:37:26.574Z,11.89
2023-09-23T23:42:29.362Z,11.89
2023-09-23T23:47:32.475Z,11.87
2023-09-23T23:52:37.332Z,11.81
2023-09-23T23:57:40.708Z,11.70
